createdAt,value
2017-07-14T00:02:00.668Z,79.65
2017-07-14T00:04:28.533Z,78.47
2017-07-14T00:06:56.306Z,79.05
2017-07-14T00:09:25.339Z,79.65
2017-07-14T00:11:53.343Z,79.05
2017-07-14T00:14:21.073Z,79.64
2017-07-14T00:16:48.847Z,79.43
2017-07-14T00:19:16.634Z,79.57
2017-07-14T00:21:44.382Z,79.46
2017-07-14T00:24:12.132Z,79.33
2017-07-14T00:26:39.911Z,80.09
2017-07-14T00:29:07.634Z,80.26
2017-07-14T00:31:35.435Z,79.69
2017-07-14T00:34:03.172Z,79.44
2017-07-14T00:36:30.948Z,79.10
2017-07-14T00:38:58.731Z,80.03
2017-07-14T00:41:26.626Z,80.33
2017-07-14T00:43:54.313Z,79.38
2017-07-14T00:46:22.024Z,79.64
2017-07-14T00:48:49.824Z,79.85
2017-07-14T00:51:17.518Z,80.01
2017-07-14T00:53:45.221Z,79.77
2017-07-14T00:56:12.958Z,80.65
2017-07-14T00:58:40.661Z,80.74
2017-07-14T01:01:08.376Z,80.96
2017-07-14T01:03:36.148Z,80.29
2017-07-14T01:06:03.882Z,80.50
2017-07-14T01:08:31.575Z,80.53
2017-07-14T01:10:59.352Z,80.72
2017-07-14T01:13:27.077Z,80.42
2017-07-14T01:15:54.862Z,80.16
2017-07-14T01:18:22.684Z,80.20
2017-07-14T01:20:50.492Z,80.86
2017-07-14T01:23:18.213Z,80.56
2017-07-14T01:25:45.911Z,81.20
2017-07-14T01:28:13.683Z,81.51
2017-07-14T01:30:41.386Z,81.38
2017-07-14T01:33:09.159Z,81.83
2017-07-14T01:35:36.958Z,81.79
2017-07-14T01:38:04.658Z,81.83
2017-07-14T01:40:32.383Z,81.29
2017-07-14T01:43:00.208Z,81.10
2017-07-14T01:45:27.914Z,81.44
2017-07-14T01:47:56.100Z,80.98
2017-07-14T01:50:23.913Z,81.38
2017-07-14T01:52:51.678Z,81.61
2017-07-14T01:55:19.417Z,81.49
2017-07-14T01:57:47.351Z,82.02
2017-07-14T02:00:15.215Z,81.97
2017-07-14T02:02:43.173Z,81.35
2017-07-14T02:05:11.072Z,81.82
2017-07-14T02:07:38.840Z,82.09
2017-07-14T02:10:06.746Z,81.93
2017-07-14T02:12:34.536Z,82.15
2017-07-14T02:15:02.383Z,82.36
2017-07-14T02:17:30.157Z,82.28
2017-07-14T02:19:57.993Z,82.88
2017-07-14T02:22:25.803Z,82.84
2017-07-14T02:24:53.650Z,82.60
2017-07-14T02:27:21.380Z,83.04
2017-07-14T02:29:49.151Z,83.44
2017-07-14T02:32:18.013Z,83.63
2017-07-14T02:34:45.825Z,84.15
2017-07-14T02:37:13.597Z,84.34
2017-07-14T02:39:41.378Z,84.34
2017-07-14T02:42:09.215Z,83.79
2017-07-14T02:44:37.093Z,83.97
2017-07-14T02:47:04.985Z,83.31
2017-07-14T02:49:32.775Z,83.36
2017-07-14T02:52:00.548Z,83.31
2017-07-14T02:54:29.961Z,82.91
2017-07-14T02:56:57.741Z,83.02
2017-07-14T02:59:26.895Z,83.10
2017-07-14T03:01:54.940Z,83.23
2017-07-14T03:04:22.669Z,82.86
2017-07-14T03:06:50.434Z,82.92
2017-07-14T03:09:18.219Z,82.85
2017-07-14T03:11:45.994Z,82.51
2017-07-14T03:14:13.743Z,82.41
2017-07-14T03:16:41.594Z,83.07
2017-07-14T03:19:09.355Z,82.74
2017-07-14T03:21:37.155Z,82.83
2017-07-14T03:24:05.001Z,83.21
2017-07-14T03:26:32.791Z,83.11
2017-07-14T03:29:00.586Z,83.06
2017-07-14T03:31:28.354Z,83.07
2017-07-14T03:33:56.114Z,82.74
2017-07-14T03:36:23.820Z,83.02
2017-07-14T03:38:51.605Z,82.86
2017-07-14T03:41:19.326Z,83.08
2017-07-14T03:43:47.274Z,83.36
2017-07-14T03:46:15.017Z,84.12
2017-07-14T03:48:42.794Z,83.31
2017-07-14T03:51:10.523Z,83.23
2017-07-14T03:53:38.347Z,83.23
2017-07-14T03:56:06.117Z,83.28
2017-07-14T03:58:33.877Z,82.54
2017-07-14T04:01:01.660Z,81.93
2017-07-14T04:03:29.411Z,82.32
2017-07-14T04:05:57.190Z,82.58
2017-07-14T04:08:24.951Z,83.82
2017-07-14T04:10:52.731Z,83.29
2017-07-14T04:13:20.470Z,83.57
2017-07-14T04:15:48.270Z,83.62
2017-07-14T04:18:16.090Z,82.98
2017-07-14T04:20:43.814Z,82.65
2017-07-14T04:23:11.593Z,81.90
2017-07-14T04:25:39.369Z,82.40
2017-07-14T04:28:07.065Z,82.40
2017-07-14T04:30:34.844Z,82.87
2017-07-14T04:33:02.547Z,83.20
2017-07-14T04:35:30.346Z,82.64
2017-07-14T04:37:58.050Z,82.28
2017-07-14T04:40:25.840Z,81.91
2017-07-14T04:42:53.540Z,82.83
2017-07-14T04:45:21.341Z,82.67
2017-07-14T04:47:49.074Z,83.10
2017-07-14T04:50:16.823Z,83.91
2017-07-14T04:52:44.608Z,84.45
2017-07-14T04:55:12.317Z,83.63
2017-07-14T04:57:40.011Z,82.99
2017-07-14T05:00:07.731Z,82.64
2017-07-14T05:02:35.521Z,82.13
2017-07-14T05:05:03.314Z,81.78
2017-07-14T05:07:31.095Z,81.91
2017-07-14T05:09:58.864Z,81.85
2017-07-14T05:12:26.553Z,81.64
2017-07-14T05:14:54.437Z,80.84
2017-07-14T05:17:22.248Z,79.83
2017-07-14T05:19:50.010Z,80.27
2017-07-14T05:22:17.800Z,80.04
2017-07-14T05:24:45.543Z,80.96
2017-07-14T05:27:13.310Z,79.41
2017-07-14T05:29:41.086Z,79.35
2017-07-14T05:32:09.574Z,78.22
2017-07-14T05:34:37.351Z,78.04
2017-07-14T05:37:05.105Z,76.12
2017-07-14T05:39:32.798Z,77.28
2017-07-14T05:42:00.518Z,77.02
2017-07-14T05:44:28.272Z,76.86
2017-07-14T05:46:56.054Z,77.59
2017-07-14T05:49:23.808Z,77.78
2017-07-14T05:51:51.565Z,79.26
2017-07-14T05:54:19.330Z,79.30
2017-07-14T05:56:47.035Z,78.57
2017-07-14T05:59:14.819Z,78.61
2017-07-14T06:01:42.515Z,78.54
2017-07-14T06:04:10.295Z,78.27
2017-07-14T06:06:38.086Z,76.42
2017-07-14T06:09:05.799Z,74.34
2017-07-14T06:11:33.552Z,72.47
2017-07-14T06:14:01.254Z,72.62
2017-07-14T06:16:29.321Z,72.72
2017-07-14T06:18:57.112Z,73.42
2017-07-14T06:21:24.975Z,70.93
2017-07-14T06:23:52.738Z,70.84
2017-07-14T06:26:20.572Z,72.65
2017-07-14T06:28:48.372Z,73.10
2017-07-14T06:31:16.156Z,72.59
2017-07-14T06:33:44.054Z,70.23
2017-07-14T06:36:11.913Z,69.40
2017-07-14T06:38:39.763Z,68.38
2017-07-14T06:41:07.602Z,69.09
2017-07-14T06:43:35.415Z,69.84
2017-07-14T06:46:03.132Z,69.68
2017-07-14T06:48:30.918Z,68.77
2017-07-14T06:50:58.699Z,67.95
2017-07-14T06:53:26.451Z,71.46
2017-07-14T06:55:54.254Z,70.03
2017-07-14T06:58:21.947Z,70.82
2017-07-14T07:00:50.809Z,68.38
2017-07-14T07:03:18.615Z,68.04
2017-07-14T07:05:46.340Z,70.00
2017-07-14T07:08:14.176Z,70.22
2017-07-14T07:10:41.972Z,69.89
2017-07-14T07:13:09.700Z,69.06
2017-07-14T07:15:37.583Z,69.73
2017-07-14T07:18:05.357Z,68.69
2017-07-14T07:20:33.081Z,69.49
2017-07-14T07:23:00.822Z,68.74
2017-07-14T07:25:28.696Z,68.43
2017-07-14T07:27:56.658Z,66.69
2017-07-14T07:30:24.355Z,68.65
2017-07-14T07:32:52.142Z,68.02
2017-07-14T07:35:19.853Z,66.45
2017-07-14T07:37:47.622Z,67.98
2017-07-14T07:40:15.343Z,67.22
2017-07-14T07:42:43.161Z,68.00
2017-07-14T07:45:11.037Z,63.10
2017-07-14T07:47:44.579Z,64.34
2017-07-14T07:50:13.521Z,65.05
2017-07-14T07:52:41.301Z,66.94
2017-07-14T07:55:09.102Z,67.94
2017-07-14T07:57:36.891Z,66.96
2017-07-14T08:00:04.822Z,67.41
2017-07-14T08:02:38.022Z,69.04
2017-07-14T08:05:05.827Z,69.91
2017-07-14T08:07:33.577Z,69.89
2017-07-14T08:10:01.324Z,69.15
2017-07-14T08:12:29.121Z,69.64
2017-07-14T08:14:56.839Z,70.57
2017-07-14T08:17:24.582Z,69.98
2017-07-14T08:19:52.279Z,69.82
2017-07-14T08:22:20.077Z,69.53
2017-07-14T08:24:47.826Z,70.89
2017-07-14T08:27:15.716Z,71.18
2017-07-14T08:29:43.486Z,70.84
2017-07-14T08:32:11.252Z,68.23
2017-07-14T08:34:38.956Z,69.25
2017-07-14T08:37:06.682Z,69.43
2017-07-14T08:39:34.518Z,69.76
2017-07-14T08:42:02.306Z,68.61
2017-07-14T08:44:30.019Z,68.54
2017-07-14T08:46:57.784Z,69.15
2017-07-14T08:49:25.579Z,68.05
2017-07-14T08:51:53.363Z,68.01
2017-07-14T08:54:21.136Z,67.76
2017-07-14T08:56:48.884Z,68.11
2017-07-14T08:59:16.738Z,68.58
2017-07-14T09:01:44.440Z,68.11
2017-07-14T09:04:12.163Z,67.57
2017-07-14T09:06:40.094Z,67.34
2017-07-14T09:09:07.810Z,66.98
2017-07-14T09:11:35.639Z,67.85
2017-07-14T09:14:03.418Z,69.64
2017-07-14T09:16:31.212Z,69.18
2017-07-14T09:18:58.947Z,66.98
2017-07-14T09:21:26.647Z,66.11
2017-07-14T09:23:54.437Z,64.29
2017-07-14T09:26:22.847Z,64.79
2017-07-14T09:28:50.620Z,65.16
2017-07-14T09:31:18.401Z,66.42
2017-07-14T09:33:46.207Z,65.06
2017-07-14T09:36:13.912Z,66.52
2017-07-14T09:38:41.657Z,66.90
2017-07-14T09:41:09.424Z,66.96
2017-07-14T09:43:37.131Z,68.45
2017-07-14T09:46:04.875Z,68.83
2017-07-14T09:48:32.634Z,69.68
2017-07-14T09:51:00.364Z,70.54
2017-07-14T09:53:28.126Z,71.43
2017-07-14T09:55:55.843Z,71.58
2017-07-14T09:58:23.695Z,71.62
2017-07-14T10:00:51.434Z,73.04
2017-07-14T10:03:19.129Z,73.37
2017-07-14T10:05:46.907Z,74.88
2017-07-14T10:08:14.616Z,71.04
2017-07-14T10:10:42.374Z,74.26
2017-07-14T10:13:10.134Z,75.94
2017-07-14T10:15:37.978Z,77.08
2017-07-14T10:18:05.745Z,77.28
2017-07-14T10:20:34.459Z,78.36
2017-07-14T10:23:03.003Z,78.18
2017-07-14T10:25:30.812Z,77.99
2017-07-14T10:27:58.616Z,78.09
2017-07-14T10:30:26.373Z,77.93
2017-07-14T10:32:54.092Z,78.62
2017-07-14T10:35:21.892Z,79.61
2017-07-14T10:37:49.657Z,79.03
2017-07-14T10:40:17.406Z,79.60
2017-07-14T10:42:45.220Z,80.04
2017-07-14T10:45:13.326Z,79.98
2017-07-14T10:47:41.425Z,80.75
2017-07-14T10:50:09.324Z,79.95
2017-07-14T10:52:37.150Z,79.86
2017-07-14T10:55:05.268Z,80.49
2017-07-14T10:57:33.774Z,80.95
2017-07-14T11:00:03.928Z,81.67
2017-07-14T11:02:31.975Z,80.72
2017-07-14T11:04:59.819Z,81.30
2017-07-14T11:07:28.391Z,82.67
2017-07-14T11:09:56.159Z,81.30
2017-07-14T11:12:23.877Z,78.68
2017-07-14T11:14:51.598Z,78.94
2017-07-14T11:17:19.472Z,79.36
2017-07-14T11:19:47.296Z,80.12
2017-07-14T11:22:15.019Z,81.53
2017-07-14T11:24:42.810Z,82.47
2017-07-14T11:27:10.642Z,81.40
2017-07-14T11:29:38.333Z,81.72
2017-07-14T11:32:06.053Z,81.79
2017-07-14T11:34:33.916Z,81.59
2017-07-14T11:37:01.653Z,81.26
2017-07-14T11:39:29.478Z,81.84
2017-07-14T11:41:57.196Z,82.70
2017-07-14T11:44:24.889Z,83.60
2017-07-14T11:46:52.638Z,82.97
2017-07-14T11:49:20.369Z,82.79
2017-07-14T11:51:48.169Z,82.07
2017-07-14T11:54:15.933Z,81.67
2017-07-14T11:56:43.772Z,82.16
2017-07-14T11:59:11.534Z,82.65
2017-07-14T12:01:40.277Z,81.75
2017-07-14T12:04:08.058Z,81.51
2017-07-14T12:06:35.815Z,81.67
2017-07-14T12:09:03.762Z,81.13
2017-07-14T12:11:32.145Z,81.33
2017-07-14T12:13:59.944Z,82.24
2017-07-14T12:16:27.658Z,82.68
2017-07-14T12:18:55.462Z,83.75
2017-07-14T12:21:23.231Z,81.97
2017-07-14T12:23:50.990Z,80.88
2017-07-14T12:26:18.814Z,74.62
2017-07-14T12:28:47.199Z,77.32
2017-07-14T12:31:15.047Z,78.48
2017-07-14T12:33:42.831Z,77.75
2017-07-14T12:36:10.585Z,78.53
2017-07-14T12:38:38.335Z,78.02
2017-07-14T12:41:06.021Z,71.51
2017-07-14T12:43:33.831Z,73.02
2017-07-14T12:46:01.564Z,74.64
2017-07-14T12:48:29.338Z,74.99
2017-07-14T12:50:57.260Z,73.87
2017-07-14T12:53:25.014Z,75.95
2017-07-14T12:55:52.737Z,75.79
2017-07-14T12:58:20.506Z,72.78
2017-07-14T13:00:48.334Z,71.55
2017-07-14T13:03:16.043Z,71.08
2017-07-14T13:05:43.824Z,71.28
2017-07-14T13:08:11.521Z,68.09
2017-07-14T13:10:39.288Z,68.20
2017-07-14T13:13:07.010Z,69.33
2017-07-14T13:15:34.790Z,68.64
2017-07-14T13:18:02.496Z,65.13
2017-07-14T13:20:30.203Z,67.11
2017-07-14T13:22:57.937Z,65.82
2017-07-14T13:25:25.677Z,66.86
2017-07-14T13:27:53.376Z,65.12
2017-07-14T13:30:21.057Z,66.03
2017-07-14T13:32:48.955Z,66.58
2017-07-14T13:35:16.684Z,64.97
2017-07-14T13:37:44.700Z,69.85
2017-07-14T13:40:12.395Z,68.44
2017-07-14T13:42:40.463Z,69.15
2017-07-14T13:45:08.291Z,70.04
2017-07-14T13:47:36.991Z,69.26
2017-07-14T13:50:04.892Z,70.30
2017-07-14T13:52:32.667Z,69.79
2017-07-14T13:55:00.378Z,69.29
2017-07-14T13:57:28.146Z,68.54
2017-07-14T13:59:55.867Z,67.96
2017-07-14T14:02:24.411Z,67.03
2017-07-14T14:04:52.200Z,66.84
2017-07-14T14:07:20.037Z,67.23
2017-07-14T14:09:47.772Z,67.95
2017-07-14T14:12:15.543Z,67.20
2017-07-14T14:14:43.352Z,67.28
2017-07-14T14:17:11.178Z,67.85
2017-07-14T14:19:39.001Z,66.58
2017-07-14T14:22:06.715Z,68.09
2017-07-14T14:24:34.479Z,68.93
2017-07-14T14:27:02.248Z,68.76
2017-07-14T14:29:29.969Z,68.76
2017-07-14T14:31:57.730Z,68.73
2017-07-14T14:34:25.516Z,69.35
2017-07-14T14:36:53.315Z,71.17
2017-07-14T14:39:21.076Z,72.91
2017-07-14T14:41:49.764Z,72.44
2017-07-14T14:44:17.456Z,71.71
2017-07-14T14:46:45.342Z,72.57
2017-07-14T14:49:13.254Z,73.22
2017-07-14T14:51:41.028Z,73.38
2017-07-14T14:54:09.552Z,73.98
2017-07-14T14:56:37.341Z,74.96
2017-07-14T14:59:05.069Z,74.62
2017-07-14T15:01:34.027Z,74.76
2017-07-14T15:04:02.599Z,74.49
2017-07-14T15:06:30.383Z,74.32
2017-07-14T15:08:58.341Z,74.64
2017-07-14T15:11:26.335Z,75.14
2017-07-14T15:13:54.077Z,75.49
2017-07-14T15:16:22.863Z,77.06
2017-07-14T15:18:50.674Z,76.72
2017-07-14T15:21:18.387Z,76.77
2017-07-14T15:23:46.236Z,77.23
2017-07-14T15:26:13.998Z,78.34
2017-07-14T15:28:41.711Z,79.24
2017-07-14T15:31:09.501Z,78.43
2017-07-14T15:33:37.352Z,80.69
2017-07-14T15:36:05.199Z,80.47
2017-07-14T15:38:32.992Z,81.74
2017-07-14T15:41:00.780Z,76.05
2017-07-14T15:43:28.510Z,77.43
2017-07-14T15:45:56.304Z,79.11
2017-07-14T15:48:24.090Z,79.49
2017-07-14T15:50:51.879Z,80.89
2017-07-14T15:53:19.686Z,80.40
2017-07-14T15:55:47.723Z,80.73
2017-07-14T15:58:15.453Z,80.91
2017-07-14T16:00:43.270Z,80.44
2017-07-14T16:03:11.094Z,79.49
2017-07-14T16:05:38.865Z,77.85
2017-07-14T16:08:06.605Z,75.63
2017-07-14T16:10:34.401Z,78.93
2017-07-14T16:13:02.183Z,78.02
2017-07-14T16:15:30.007Z,77.46
2017-07-14T16:17:57.810Z,74.71
2017-07-14T16:20:25.573Z,78.15
2017-07-14T16:22:53.361Z,77.75
2017-07-14T16:25:21.136Z,76.06
2017-07-14T16:27:48.942Z,78.66
2017-07-14T16:30:16.703Z,76.00
2017-07-14T16:32:44.527Z,77.23
2017-07-14T16:35:12.236Z,80.21
2017-07-14T16:37:40.033Z,80.45
2017-07-14T16:40:07.775Z,77.95
2017-07-14T16:42:35.783Z,79.01
2017-07-14T16:45:03.568Z,76.06
2017-07-14T16:47:31.345Z,80.14
2017-07-14T16:49:59.257Z,79.72
2017-07-14T16:52:27.038Z,79.44
2017-07-14T16:54:54.993Z,78.39
2017-07-14T16:57:22.738Z,78.61
2017-07-14T16:59:51.248Z,78.91
2017-07-14T17:02:19.008Z,78.09
2017-07-14T17:04:46.745Z,77.78
2017-07-14T17:07:14.534Z,78.84
2017-07-14T17:09:42.240Z,79.06
2017-07-14T17:12:10.053Z,79.83
2017-07-14T17:14:38.879Z,80.27
2017-07-14T17:17:06.763Z,81.74
2017-07-14T17:19:34.698Z,80.79
2017-07-14T17:22:02.453Z,80.05
2017-07-14T17:24:30.199Z,81.00
2017-07-14T17:26:58.000Z,80.81
2017-07-14T17:29:25.767Z,80.55
2017-07-14T17:31:53.519Z,81.15
2017-07-14T17:34:21.260Z,81.86
2017-07-14T17:36:49.049Z,80.47
2017-07-14T17:39:16.837Z,79.91
2017-07-14T17:41:44.532Z,80.97
2017-07-14T17:44:12.308Z,81.19
2017-07-14T17:46:40.130Z,80.91
2017-07-14T17:49:07.941Z,81.06
2017-07-14T17:51:35.860Z,81.58
2017-07-14T17:54:04.433Z,81.65
2017-07-14T17:56:32.233Z,81.74
2017-07-14T17:59:00.007Z,80.51
2017-07-14T18:01:29.665Z,81.51
2017-07-14T18:03:58.976Z,81.94
2017-07-14T18:06:26.830Z,81.32
2017-07-14T18:08:54.573Z,81.31
2017-07-14T18:11:22.537Z,81.32
2017-07-14T18:13:50.512Z,81.83
2017-07-14T18:16:18.390Z,81.01
2017-07-14T18:18:46.218Z,80.42
2017-07-14T18:21:14.673Z,80.35
2017-07-14T18:23:42.420Z,80.75
2017-07-14T18:26:10.590Z,81.65
2017-07-14T18:28:38.557Z,82.07
2017-07-14T18:33:40.347Z,83.18
2017-07-14T18:36:08.110Z,82.03
2017-07-14T18:38:35.866Z,82.52
2017-07-14T18:41:03.672Z,82.27
2017-07-14T18:43:31.792Z,83.57
2017-07-14T18:45:59.625Z,82.55
2017-07-14T18:48:27.422Z,82.37
2017-07-14T18:50:55.227Z,83.04
2017-07-14T18:53:23.107Z,83.21
2017-07-14T18:55:50.867Z,82.55
2017-07-14T18:58:18.675Z,82.75
2017-07-14T19:00:46.391Z,82.86
2017-07-14T19:03:14.256Z,83.04
2017-07-14T19:05:42.139Z,83.16
2017-07-14T19:08:10.551Z,83.75
2017-07-14T19:10:38.653Z,83.09
2017-07-14T19:13:06.671Z,82.83
2017-07-14T19:15:35.343Z,82.53
2017-07-14T19:18:03.204Z,83.09
2017-07-14T19:20:31.016Z,83.53
2017-07-14T19:22:58.927Z,83.72
2017-07-14T19:25:26.864Z,82.88
2017-07-14T19:27:54.704Z,83.40
2017-07-14T19:30:22.680Z,83.69
2017-07-14T19:32:50.455Z,84.36
2017-07-14T19:35:18.354Z,84.11
2017-07-14T19:37:46.204Z,84.79
2017-07-14T19:40:14.061Z,85.05
2017-07-14T19:42:42.581Z,84.87
2017-07-14T19:45:10.787Z,85.18
2017-07-14T19:47:38.710Z,84.86
2017-07-14T19:50:06.472Z,84.29
2017-07-14T19:52:34.241Z,83.97
2017-07-14T19:55:02.130Z,84.33
2017-07-14T19:57:30.038Z,84.36
2017-07-14T19:59:57.841Z,83.99
2017-07-14T20:02:25.639Z,84.11
2017-07-14T20:04:53.535Z,84.36
2017-07-14T20:07:21.384Z,84.68
2017-07-14T20:09:49.225Z,84.30
2017-07-14T20:12:16.992Z,84.73
2017-07-14T20:14:44.864Z,83.95
2017-07-14T20:17:12.630Z,83.75
2017-07-14T20:19:40.411Z,84.68
2017-07-14T20:22:08.190Z,83.66
2017-07-14T20:24:35.919Z,83.98
2017-07-14T20:53:10.440Z,85.31
2017-07-14T20:55:38.234Z,85.83
2017-07-14T20:58:06.536Z,86.15
2017-07-14T21:00:34.242Z,86.12
2017-07-14T21:03:02.064Z,86.97
2017-07-14T21:05:29.832Z,86.26
2017-07-14T21:07:57.604Z,86.73
2017-07-14T21:10:25.330Z,85.95
2017-07-14T21:12:53.119Z,85.53
2017-07-14T21:15:21.050Z,86.01
2017-07-14T21:17:48.929Z,86.40
2017-07-14T21:20:16.771Z,86.17
2017-07-14T21:22:44.547Z,86.57
2017-07-14T21:25:12.340Z,86.65
2017-07-14T21:27:40.114Z,86.82
2017-07-14T21:30:07.891Z,88.49
2017-07-14T21:32:35.622Z,87.55
2017-07-14T21:35:03.398Z,87.32
2017-07-14T21:37:31.188Z,86.73
2017-07-14T21:39:58.955Z,87.48
2017-07-14T21:42:26.740Z,89.06
2017-07-14T21:44:54.463Z,87.99
2017-07-14T21:47:22.536Z,88.31
2017-07-14T21:49:50.278Z,87.46
2017-07-14T21:52:18.015Z,86.75
2017-07-14T21:54:45.769Z,85.66
2017-07-14T21:57:13.509Z,85.20
2017-07-14T21:59:41.254Z,85.87
2017-07-14T22:02:09.147Z,86.52
2017-07-14T22:04:36.861Z,88.02
2017-07-14T22:07:04.681Z,87.07
2017-07-14T22:09:32.522Z,87.21
2017-07-14T22:12:00.237Z,86.94
2017-07-14T22:14:27.945Z,86.90
2017-07-14T22:16:55.737Z,87.77
2017-07-14T22:19:23.450Z,88.60
2017-07-14T22:21:51.153Z,87.79
2017-07-14T22:24:18.937Z,87.44
2017-07-14T22:26:46.695Z,88.37
2017-07-14T22:29:14.436Z,87.38
2017-07-14T22:31:42.246Z,86.72
2017-07-14T22:34:10.009Z,86.54
2017-07-14T22:36:37.740Z,86.25
2017-07-14T22:39:05.769Z,85.77
2017-07-14T22:41:33.537Z,85.60
2017-07-14T22:44:01.227Z,85.91
2017-07-14T22:46:29.007Z,86.84
2017-07-14T22:48:56.710Z,86.88
2017-07-14T22:51:25.261Z,87.45
2017-07-14T22:53:53.027Z,87.75
2017-07-14T22:56:20.801Z,86.67
2017-07-14T22:58:48.573Z,86.46
2017-07-14T23:01:16.330Z,87.17
2017-07-14T23:03:44.138Z,87.50
2017-07-14T23:06:11.871Z,87.91
2017-07-14T23:08:39.696Z,88.02
2017-07-14T23:11:07.485Z,88.33
2017-07-14T23:13:35.220Z,87.31
2017-07-14T23:16:02.977Z,87.60
2017-07-14T23:18:30.736Z,86.57
2017-07-14T23:20:58.513Z,87.06
2017-07-14T23:23:26.266Z,87.14
2017-07-14T23:25:54.033Z,87.46
2017-07-14T23:28:21.783Z,87.06
2017-07-14T23:30:49.759Z,86.65
2017-07-14T23:33:17.532Z,86.50
2017-07-14T23:35:45.245Z,86.58
2017-07-14T23:38:13.026Z,86.69
2017-07-14T23:40:40.805Z,86.86
2017-07-14T23:43:08.593Z,86.88
2017-07-14T23:45:37.111Z,86.99
2017-07-14T23:48:04.969Z,86.58
2017-07-14T23:50:32.731Z,86.16
2017-07-14T23:53:00.421Z,86.39
2017-07-14T23:55:28.142Z,87.38
2017-07-14T23:57:55.907Z,87.90
